sensor_id;sensor_type;location;lat;lon;timestamp;P1;durP1;ratioP1;P2;durP2;ratioP2
4102;SDS011;2065;49.790;9.620;2023-01-19T00:01:33;8.90;;;6.20;;
4102;SDS011;2065;49.790;9.620;2023-01-19T00:04:00;13.23;;;7.33;;
4102;SDS011;2065;49.790;9.620;2023-01-19T00:06:26;17.33;;;8.20;;
4102;SDS011;2065;49.790;9.620;2023-01-19T00:08:53;14.47;;;6.87;;
4102;SDS011;2065;49.790;9.620;2023-01-19T00:11:20;14.60;;;7.00;;
4102;SDS011;2065;49.790;9.620;2023-01-19T00:13:47;12.03;;;6.93;;
4102;SDS011;2065;49.790;9.620;2023-01-19T00:16:15;13.63;;;7.87;;
4102;SDS011;2065;49.790;9.620;2023-01-19T00:18:43;13.37;;;6.50;;
4102;SDS011;2065;49.790;9.620;2023-01-19T00:21:11;23.97;;;8.50;;
4102;SDS011;2065;49.790;9.620;2023-01-19T00:23:38;14.03;;;7.77;;
4102;SDS011;2065;49.790;9.620;2023-01-19T00:26:06;14.00;;;8.03;;
4102;SDS011;2065;49.790;9.620;2023-01-19T00:28:34;9.57;;;6.17;;
4102;SDS011;2065;49.790;9.620;2023-01-19T00:31:01;12.10;;;5.93;;
4102;SDS011;2065;49.790;9.620;2023-01-19T00:33:28;12.83;;;7.27;;
4102;SDS011;2065;49.790;9.620;2023-01-19T00:35:56;13.73;;;7.20;;
4102;SDS011;2065;49.790;9.620;2023-01-19T00:38:23;16.47;;;8.10;;
4102;SDS011;2065;49.790;9.620;2023-01-19T00:40:50;20.10;;;10.50;;
4102;SDS011;2065;49.790;9.620;2023-01-19T00:43:17;13.90;;;7.83;;
4102;SDS011;2065;49.790;9.620;2023-01-19T00:45:44;14.13;;;8.70;;
4102;SDS011;2065;49.790;9.620;2023-01-19T00:48:11;12.07;;;7.77;;
4102;SDS011;2065;49.790;9.620;2023-01-19T00:50:38;16.77;;;8.10;;
4102;SDS011;2065;49.790;9.620;2023-01-19T00:53:06;14.73;;;7.37;;
4102;SDS011;2065;49.790;9.620;2023-01-19T00:55:33;13.30;;;8.27;;
4102;SDS011;2065;49.790;9.620;2023-01-19T00:58:00;18.07;;;8.50;;
4102;SDS011;2065;49.790;9.620;2023-01-19T01:00:28;14.07;;;7.40;;
4102;SDS011;2065;49.790;9.620;2023-01-19T01:02:54;13.90;;;7.67;;
4102;SDS011;2065;49.790;9.620;2023-01-19T01:05:21;17.90;;;8.60;;
4102;SDS011;2065;49.790;9.620;2023-01-19T01:07:48;13.80;;;8.63;;
4102;SDS011;2065;49.790;9.620;2023-01-19T01:10:17;18.20;;;7.50;;
4102;SDS011;2065;49.790;9.620;2023-01-19T01:12:45;11.87;;;8.03;;
4102;SDS011;2065;49.790;9.620;2023-01-19T01:15:14;20.90;;;9.20;;
4102;SDS011;2065;49.790;9.620;2023-01-19T01:17:41;13.10;;;7.20;;
4102;SDS011;2065;49.790;9.620;2023-01-19T01:20:12;9.27;;;7.57;;
4102;SDS011;2065;49.790;9.620;2023-01-19T01:22:43;18.10;;;8.27;;
4102;SDS011;2065;49.790;9.620;2023-01-19T01:25:11;24.17;;;8.43;;
4102;SDS011;2065;49.790;9.620;2023-01-19T01:27:40;19.67;;;7.80;;
4102;SDS011;2065;49.790;9.620;2023-01-19T01:30:08;14.60;;;8.00;;
4102;SDS011;2065;49.790;9.620;2023-01-19T01:32:37;20.67;;;9.13;;
4102;SDS011;2065;49.790;9.620;2023-01-19T01:35:04;13.03;;;9.13;;
4102;SDS011;2065;49.790;9.620;2023-01-19T01:37:33;14.13;;;9.30;;
4102;SDS011;2065;49.790;9.620;2023-01-19T01:40:00;19.93;;;12.03;;
4102;SDS011;2065;49.790;9.620;2023-01-19T01:42:28;15.73;;;8.97;;
4102;SDS011;2065;49.790;9.620;2023-01-19T01:44:58;16.63;;;9.20;;
4102;SDS011;2065;49.790;9.620;2023-01-19T01:47:27;12.40;;;7.43;;
4102;SDS011;2065;49.790;9.620;2023-01-19T01:50:02;15.10;;;7.60;;
4102;SDS011;2065;49.790;9.620;2023-01-19T01:52:33;13.43;;;8.60;;
4102;SDS011;2065;49.790;9.620;2023-01-19T01:55:06;16.77;;;9.67;;
4102;SDS011;2065;49.790;9.620;2023-01-19T01:57:35;16.53;;;9.37;;
4102;SDS011;2065;49.790;9.620;2023-01-19T02:00:06;19.20;;;10.03;;
4102;SDS011;2065;49.790;9.620;2023-01-19T02:02:34;16.27;;;8.67;;
4102;SDS011;2065;49.790;9.620;2023-01-19T02:05:23;15.27;;;8.33;;
4102;SDS011;2065;49.790;9.620;2023-01-19T02:07:55;14.23;;;8.43;;
4102;SDS011;2065;49.790;9.620;2023-01-19T02:10:44;17.73;;;10.40;;
4102;SDS011;2065;49.790;9.620;2023-01-19T02:13:29;16.13;;;7.43;;
4102;SDS011;2065;49.790;9.620;2023-01-19T02:16:00;12.60;;;6.90;;
4102;SDS011;2065;49.790;9.620;2023-01-19T02:18:31;15.43;;;6.67;;
4102;SDS011;2065;49.790;9.620;2023-01-19T02:21:01;11.33;;;7.13;;
4102;SDS011;2065;49.790;9.620;2023-01-19T02:23:38;11.50;;;7.40;;
4102;SDS011;2065;49.790;9.620;2023-01-19T02:26:08;13.73;;;8.03;;
4102;SDS011;2065;49.790;9.620;2023-01-19T02:28:38;12.77;;;7.93;;
4102;SDS011;2065;49.790;9.620;2023-01-19T02:31:08;17.67;;;7.40;;
4102;SDS011;2065;49.790;9.620;2023-01-19T02:33:36;15.90;;;7.60;;
4102;SDS011;2065;49.790;9.620;2023-01-19T02:36:03;16.00;;;8.47;;
4102;SDS011;2065;49.790;9.620;2023-01-19T02:38:33;18.83;;;8.87;;
4102;SDS011;2065;49.790;9.620;2023-01-19T02:41:02;16.63;;;8.37;;
4102;SDS011;2065;49.790;9.620;2023-01-19T02:43:32;19.40;;;9.27;;
4102;SDS011;2065;49.790;9.620;2023-01-19T02:46:01;14.63;;;9.97;;
4102;SDS011;2065;49.790;9.620;2023-01-19T02:48:28;11.37;;;8.50;;
4102;SDS011;2065;49.790;9.620;2023-01-19T02:50:56;16.43;;;9.20;;
4102;SDS011;2065;49.790;9.620;2023-01-19T02:53:48;10.20;;;6.63;;
4102;SDS011;2065;49.790;9.620;2023-01-19T02:56:45;16.30;;;8.40;;
4102;SDS011;2065;49.790;9.620;2023-01-19T02:59:22;13.60;;;7.50;;
4102;SDS011;2065;49.790;9.620;2023-01-19T03:01:59;14.40;;;7.50;;
4102;SDS011;2065;49.790;9.620;2023-01-19T03:04:39;12.87;;;7.50;;
4102;SDS011;2065;49.790;9.620;2023-01-19T03:07:20;14.67;;;7.97;;
4102;SDS011;2065;49.790;9.620;2023-01-19T03:09:57;16.60;;;8.07;;
4102;SDS011;2065;49.790;9.620;2023-01-19T03:12:33;15.13;;;7.17;;
4102;SDS011;2065;49.790;9.620;2023-01-19T03:15:10;14.70;;;8.57;;
4102;SDS011;2065;49.790;9.620;2023-01-19T03:17:44;12.20;;;7.43;;
4102;SDS011;2065;49.790;9.620;2023-01-19T03:20:14;13.57;;;8.47;;
4102;SDS011;2065;49.790;9.620;2023-01-19T03:22:45;17.97;;;8.10;;
4102;SDS011;2065;49.790;9.620;2023-01-19T03:25:16;17.77;;;8.00;;
4102;SDS011;2065;49.790;9.620;2023-01-19T03:27:47;14.50;;;8.30;;
4102;SDS011;2065;49.790;9.620;2023-01-19T03:30:19;17.70;;;8.80;;
4102;SDS011;2065;49.790;9.620;2023-01-19T03:32:50;12.77;;;7.13;;
4102;SDS011;2065;49.790;9.620;2023-01-19T03:35:21;17.20;;;9.17;;
4102;SDS011;2065;49.790;9.620;2023-01-19T03:37:50;13.17;;;7.30;;
4102;SDS011;2065;49.790;9.620;2023-01-19T03:40:23;9.50;;;7.40;;
4102;SDS011;2065;49.790;9.620;2023-01-19T03:42:54;11.87;;;6.77;;
4102;SDS011;2065;49.790;9.620;2023-01-19T03:45:21;17.40;;;7.80;;
4102;SDS011;2065;49.790;9.620;2023-01-19T03:47:49;15.33;;;7.67;;
4102;SDS011;2065;49.790;9.620;2023-01-19T03:50:19;15.90;;;7.70;;
4102;SDS011;2065;49.790;9.620;2023-01-19T03:53:01;16.50;;;8.17;;
4102;SDS011;2065;49.790;9.620;2023-01-19T03:55:32;12.63;;;7.23;;
4102;SDS011;2065;49.790;9.620;2023-01-19T03:58:00;12.67;;;7.70;;
4102;SDS011;2065;49.790;9.620;2023-01-19T04:00:28;15.33;;;7.77;;
4102;SDS011;2065;49.790;9.620;2023-01-19T04:02:55;15.37;;;6.57;;
4102;SDS011;2065;49.790;9.620;2023-01-19T04:05:23;10.87;;;6.30;;
4102;SDS011;2065;49.790;9.620;2023-01-19T04:07:51;18.20;;;9.87;;
4102;SDS011;2065;49.790;9.620;2023-01-19T04:10:18;17.77;;;8.60;;
4102;SDS011;2065;49.790;9.620;2023-01-19T04:12:46;13.87;;;7.17;;
4102;SDS011;2065;49.790;9.620;2023-01-19T04:15:15;13.80;;;7.70;;
4102;SDS011;2065;49.790;9.620;2023-01-19T04:17:42;14.80;;;7.07;;
4102;SDS011;2065;49.790;9.620;2023-01-19T04:20:09;13.40;;;7.73;;
4102;SDS011;2065;49.790;9.620;2023-01-19T04:22:37;18.70;;;8.10;;
4102;SDS011;2065;49.790;9.620;2023-01-19T04:25:05;12.67;;;8.80;;
4102;SDS011;2065;49.790;9.620;2023-01-19T04:27:33;23.50;;;11.33;;
4102;SDS011;2065;49.790;9.620;2023-01-19T04:30:01;17.70;;;8.93;;
4102;SDS011;2065;49.790;9.620;2023-01-19T04:32:30;11.70;;;7.70;;
4102;SDS011;2065;49.790;9.620;2023-01-19T04:34:58;15.77;;;9.33;;
4102;SDS011;2065;49.790;9.620;2023-01-19T04:37:25;15.30;;;8.43;;
4102;SDS011;2065;49.790;9.620;2023-01-19T04:39:52;12.93;;;8.77;;
4102;SDS011;2065;49.790;9.620;2023-01-19T04:42:19;16.90;;;7.90;;
4102;SDS011;2065;49.790;9.620;2023-01-19T04:44:46;13.03;;;7.87;;
4102;SDS011;2065;49.790;9.620;2023-01-19T04:47:13;16.23;;;8.90;;
4102;SDS011;2065;49.790;9.620;2023-01-19T04:49:41;12.53;;;8.90;;
4102;SDS011;2065;49.790;9.620;2023-01-19T04:52:08;21.13;;;9.90;;
4102;SDS011;2065;49.790;9.620;2023-01-19T04:54:42;23.97;;;10.30;;
4102;SDS011;2065;49.790;9.620;2023-01-19T04:57:09;21.47;;;10.13;;
4102;SDS011;2065;49.790;9.620;2023-01-19T04:59:37;15.93;;;9.60;;
4102;SDS011;2065;49.790;9.620;2023-01-19T05:02:04;13.67;;;8.50;;
4102;SDS011;2065;49.790;9.620;2023-01-19T05:04:31;17.30;;;9.90;;
4102;SDS011;2065;49.790;9.620;2023-01-19T05:06:59;15.47;;;8.93;;
4102;SDS011;2065;49.790;9.620;2023-01-19T05:09:26;13.10;;;9.00;;
4102;SDS011;2065;49.790;9.620;2023-01-19T05:11:53;16.27;;;8.70;;
4102;SDS011;2065;49.790;9.620;2023-01-19T05:14:20;12.53;;;7.90;;
4102;SDS011;2065;49.790;9.620;2023-01-19T05:16:48;16.63;;;9.60;;
4102;SDS011;2065;49.790;9.620;2023-01-19T05:19:15;17.00;;;9.90;;
4102;SDS011;2065;49.790;9.620;2023-01-19T05:21:42;18.70;;;8.80;;
4102;SDS011;2065;49.790;9.620;2023-01-19T05:24:10;15.87;;;9.57;;
4102;SDS011;2065;49.790;9.620;2023-01-19T05:26:37;17.73;;;8.80;;
4102;SDS011;2065;49.790;9.620;2023-01-19T05:29:04;14.23;;;8.00;;
4102;SDS011;2065;49.790;9.620;2023-01-19T05:31:32;16.53;;;8.93;;
4102;SDS011;2065;49.790;9.620;2023-01-19T05:34:00;17.57;;;8.27;;
4102;SDS011;2065;49.790;9.620;2023-01-19T05:36:27;17.10;;;9.93;;
4102;SDS011;2065;49.790;9.620;2023-01-19T05:38:54;19.23;;;9.70;;
4102;SDS011;2065;49.790;9.620;2023-01-19T05:41:23;17.90;;;10.20;;
4102;SDS011;2065;49.790;9.620;2023-01-19T05:43:50;14.07;;;9.60;;
4102;SDS011;2065;49.790;9.620;2023-01-19T05:46:17;24.63;;;8.70;;
4102;SDS011;2065;49.790;9.620;2023-01-19T05:48:44;14.83;;;7.73;;
4102;SDS011;2065;49.790;9.620;2023-01-19T05:51:11;19.47;;;9.67;;
4102;SDS011;2065;49.790;9.620;2023-01-19T05:53:39;21.07;;;11.43;;
4102;SDS011;2065;49.790;9.620;2023-01-19T05:56:07;18.13;;;10.80;;
4102;SDS011;2065;49.790;9.620;2023-01-19T05:58:36;17.33;;;10.13;;
4102;SDS011;2065;49.790;9.620;2023-01-19T06:01:05;19.93;;;11.57;;
4102;SDS011;2065;49.790;9.620;2023-01-19T06:03:33;21.37;;;10.60;;
4102;SDS011;2065;49.790;9.620;2023-01-19T06:06:03;19.63;;;10.80;;
4102;SDS011;2065;49.790;9.620;2023-01-19T06:08:30;16.67;;;10.17;;
4102;SDS011;2065;49.790;9.620;2023-01-19T06:10:57;19.23;;;9.60;;
4102;SDS011;2065;49.790;9.620;2023-01-19T06:13:24;20.80;;;11.23;;
4102;SDS011;2065;49.790;9.620;2023-01-19T06:15:56;24.53;;;11.80;;
4102;SDS011;2065;49.790;9.620;2023-01-19T06:18:24;29.30;;;15.57;;
4102;SDS011;2065;49.790;9.620;2023-01-19T06:20:51;20.47;;;11.97;;
4102;SDS011;2065;49.790;9.620;2023-01-19T06:23:23;19.37;;;10.03;;
4102;SDS011;2065;49.790;9.620;2023-01-19T06:25:50;25.43;;;13.17;;
4102;SDS011;2065;49.790;9.620;2023-01-19T06:28:17;22.63;;;14.10;;
4102;SDS011;2065;49.790;9.620;2023-01-19T06:30:46;28.90;;;13.80;;
4102;SDS011;2065;49.790;9.620;2023-01-19T06:33:15;24.60;;;12.67;;
4102;SDS011;2065;49.790;9.620;2023-01-19T06:35:46;24.80;;;13.80;;
4102;SDS011;2065;49.790;9.620;2023-01-19T06:38:15;18.50;;;12.03;;
4102;SDS011;2065;49.790;9.620;2023-01-19T06:40:43;23.20;;;12.40;;
4102;SDS011;2065;49.790;9.620;2023-01-19T06:43:10;26.93;;;13.80;;
4102;SDS011;2065;49.790;9.620;2023-01-19T06:45:38;24.07;;;11.47;;
4102;SDS011;2065;49.790;9.620;2023-01-19T06:48:05;26.47;;;12.97;;
4102;SDS011;2065;49.790;9.620;2023-01-19T06:50:33;28.50;;;14.13;;
4102;SDS011;2065;49.790;9.620;2023-01-19T06:53:00;21.63;;;11.27;;
4102;SDS011;2065;49.790;9.620;2023-01-19T06:55:27;19.97;;;12.37;;
4102;SDS011;2065;49.790;9.620;2023-01-19T06:57:55;25.03;;;12.07;;
4102;SDS011;2065;49.790;9.620;2023-01-19T07:00:22;19.50;;;11.33;;
4102;SDS011;2065;49.790;9.620;2023-01-19T07:02:50;22.40;;;12.53;;
4102;SDS011;2065;49.790;9.620;2023-01-19T07:05:17;19.07;;;11.90;;
4102;SDS011;2065;49.790;9.620;2023-01-19T07:07:51;23.40;;;12.67;;
4102;SDS011;2065;49.790;9.620;2023-01-19T07:10:18;18.30;;;12.30;;
4102;SDS011;2065;49.790;9.620;2023-01-19T07:12:45;16.80;;;11.07;;
4102;SDS011;2065;49.790;9.620;2023-01-19T07:15:13;19.93;;;11.40;;
4102;SDS011;2065;49.790;9.620;2023-01-19T07:17:41;16.20;;;11.10;;
4102;SDS011;2065;49.790;9.620;2023-01-19T07:20:08;23.23;;;13.97;;
4102;SDS011;2065;49.790;9.620;2023-01-19T07:22:37;24.47;;;12.77;;
4102;SDS011;2065;49.790;9.620;2023-01-19T07:25:06;14.90;;;8.67;;
4102;SDS011;2065;49.790;9.620;2023-01-19T07:27:33;21.13;;;12.87;;
4102;SDS011;2065;49.790;9.620;2023-01-19T07:30:00;19.43;;;8.37;;
4102;SDS011;2065;49.790;9.620;2023-01-19T07:32:28;14.03;;;6.67;;
4102;SDS011;2065;49.790;9.620;2023-01-19T07:34:55;9.20;;;6.70;;
4102;SDS011;2065;49.790;9.620;2023-01-19T07:37:22;25.83;;;11.70;;
4102;SDS011;2065;49.790;9.620;2023-01-19T07:39:49;23.87;;;13.97;;
4102;SDS011;2065;49.790;9.620;2023-01-19T07:42:18;22.40;;;13.27;;
4102;SDS011;2065;49.790;9.620;2023-01-19T07:44:45;19.10;;;12.13;;
4102;SDS011;2065;49.790;9.620;2023-01-19T07:47:12;24.67;;;12.83;;
4102;SDS011;2065;49.790;9.620;2023-01-19T07:49:39;22.67;;;13.00;;
4102;SDS011;2065;49.790;9.620;2023-01-19T07:52:06;33.83;;;17.37;;
4102;SDS011;2065;49.790;9.620;2023-01-19T07:54:33;24.60;;;14.63;;
4102;SDS011;2065;49.790;9.620;2023-01-19T07:57:00;20.83;;;12.13;;
4102;SDS011;2065;49.790;9.620;2023-01-19T07:59:29;37.37;;;16.37;;
4102;SDS011;2065;49.790;9.620;2023-01-19T08:01:56;34.07;;;15.23;;
4102;SDS011;2065;49.790;9.620;2023-01-19T08:04:24;22.40;;;12.50;;
4102;SDS011;2065;49.790;9.620;2023-01-19T08:06:51;28.30;;;17.00;;
4102;SDS011;2065;49.790;9.620;2023-01-19T08:09:19;35.67;;;18.50;;
4102;SDS011;2065;49.790;9.620;2023-01-19T08:11:47;28.13;;;18.13;;
4102;SDS011;2065;49.790;9.620;2023-01-19T08:14:14;34.50;;;18.27;;
4102;SDS011;2065;49.790;9.620;2023-01-19T08:16:42;30.30;;;19.13;;
4102;SDS011;2065;49.790;9.620;2023-01-19T08:19:09;38.87;;;23.60;;
4102;SDS011;2065;49.790;9.620;2023-01-19T08:21:36;43.97;;;22.70;;
4102;SDS011;2065;49.790;9.620;2023-01-19T08:24:03;35.07;;;20.67;;
4102;SDS011;2065;49.790;9.620;2023-01-19T08:26:31;31.90;;;17.80;;
4102;SDS011;2065;49.790;9.620;2023-01-19T08:29:00;43.03;;;21.17;;
4102;SDS011;2065;49.790;9.620;2023-01-19T08:31:29;38.10;;;18.50;;
4102;SDS011;2065;49.790;9.620;2023-01-19T08:33:58;31.83;;;18.10;;
4102;SDS011;2065;49.790;9.620;2023-01-19T08:36:25;102.10;;;44.07;;
4102;SDS011;2065;49.790;9.620;2023-01-19T08:38:52;53.00;;;21.37;;
4102;SDS011;2065;49.790;9.620;2023-01-19T08:41:19;42.60;;;17.73;;
4102;SDS011;2065;49.790;9.620;2023-01-19T08:43:46;39.53;;;17.30;;
4102;SDS011;2065;49.790;9.620;2023-01-19T08:46:13;29.07;;;16.40;;
4102;SDS011;2065;49.790;9.620;2023-01-19T08:48:42;34.53;;;15.97;;
4102;SDS011;2065;49.790;9.620;2023-01-19T08:51:13;22.70;;;11.90;;
4102;SDS011;2065;49.790;9.620;2023-01-19T08:53:41;19.40;;;10.00;;
4102;SDS011;2065;49.790;9.620;2023-01-19T08:56:08;24.53;;;13.57;;
4102;SDS011;2065;49.790;9.620;2023-01-19T08:58:37;24.30;;;12.27;;
4102;SDS011;2065;49.790;9.620;2023-01-19T09:01:04;16.60;;;8.37;;
4102;SDS011;2065;49.790;9.620;2023-01-19T09:03:32;19.60;;;7.50;;
4102;SDS011;2065;49.790;9.620;2023-01-19T09:05:59;15.80;;;9.10;;
4102;SDS011;2065;49.790;9.620;2023-01-19T09:08:28;14.50;;;7.43;;
4102;SDS011;2065;49.790;9.620;2023-01-19T09:10:55;17.77;;;9.10;;
4102;SDS011;2065;49.790;9.620;2023-01-19T09:13:22;18.00;;;8.23;;
4102;SDS011;2065;49.790;9.620;2023-01-19T09:15:49;12.20;;;8.20;;
4102;SDS011;2065;49.790;9.620;2023-01-19T09:18:18;9.73;;;6.73;;
4102;SDS011;2065;49.790;9.620;2023-01-19T09:20:47;11.80;;;7.27;;
4102;SDS011;2065;49.790;9.620;2023-01-19T09:23:16;15.07;;;8.03;;
4102;SDS011;2065;49.790;9.620;2023-01-19T09:25:45;14.33;;;8.27;;
4102;SDS011;2065;49.790;9.620;2023-01-19T09:28:13;14.07;;;8.67;;
4102;SDS011;2065;49.790;9.620;2023-01-19T09:30:42;13.03;;;7.80;;
4102;SDS011;2065;49.790;9.620;2023-01-19T09:33:10;16.27;;;10.20;;
4102;SDS011;2065;49.790;9.620;2023-01-19T09:35:39;15.70;;;8.93;;
4102;SDS011;2065;49.790;9.620;2023-01-19T09:38:07;16.20;;;9.83;;
4102;SDS011;2065;49.790;9.620;2023-01-19T09:40:35;31.23;;;14.37;;
4102;SDS011;2065;49.790;9.620;2023-01-19T09:43:12;18.27;;;10.50;;
4102;SDS011;2065;49.790;9.620;2023-01-19T09:45:43;19.17;;;8.93;;
4102;SDS011;2065;49.790;9.620;2023-01-19T09:48:23;14.97;;;9.60;;
4102;SDS011;2065;49.790;9.620;2023-01-19T09:50:57;16.97;;;10.73;;
4102;SDS011;2065;49.790;9.620;2023-01-19T09:53:32;23.47;;;11.63;;
4102;SDS011;2065;49.790;9.620;2023-01-19T09:56:09;21.27;;;12.60;;
4102;SDS011;2065;49.790;9.620;2023-01-19T09:58:41;18.23;;;10.47;;
4102;SDS011;2065;49.790;9.620;2023-01-19T10:01:11;15.27;;;9.67;;
4102;SDS011;2065;49.790;9.620;2023-01-19T10:03:48;13.90;;;8.63;;
4102;SDS011;2065;49.790;9.620;2023-01-19T10:06:20;17.73;;;9.40;;
4102;SDS011;2065;49.790;9.620;2023-01-19T10:08:50;50.37;;;13.17;;
4102;SDS011;2065;49.790;9.620;2023-01-19T10:11:29;17.27;;;8.90;;
4102;SDS011;2065;49.790;9.620;2023-01-19T10:14:03;10.50;;;7.33;;
4102;SDS011;2065;49.790;9.620;2023-01-19T10:16:39;19.73;;;7.90;;
4102;SDS011;2065;49.790;9.620;2023-01-19T10:19:14;16.43;;;8.97;;
4102;SDS011;2065;49.790;9.620;2023-01-19T10:21:47;12.57;;;8.40;;
4102;SDS011;2065;49.790;9.620;2023-01-19T10:24:17;27.43;;;13.33;;
4102;SDS011;2065;49.790;9.620;2023-01-19T10:26:48;11.03;;;7.50;;
4102;SDS011;2065;49.790;9.620;2023-01-19T10:29:20;19.37;;;8.83;;
4102;SDS011;2065;49.790;9.620;2023-01-19T10:31:50;22.13;;;9.70;;
4102;SDS011;2065;49.790;9.620;2023-01-19T10:34:23;11.87;;;8.00;;
4102;SDS011;2065;49.790;9.620;2023-01-19T10:36:52;16.10;;;8.47;;
4102;SDS011;2065;49.790;9.620;2023-01-19T10:39:27;18.00;;;7.73;;
4102;SDS011;2065;49.790;9.620;2023-01-19T10:41:54;18.50;;;8.77;;
4102;SDS011;2065;49.790;9.620;2023-01-19T10:44:28;10.87;;;7.87;;
4102;SDS011;2065;49.790;9.620;2023-01-19T10:46:59;15.13;;;9.20;;
4102;SDS011;2065;49.790;9.620;2023-01-19T10:49:28;13.30;;;8.73;;
4102;SDS011;2065;49.790;9.620;2023-01-19T10:52:00;10.50;;;5.83;;
4102;SDS011;2065;49.790;9.620;2023-01-19T10:54:28;10.30;;;6.67;;
4102;SDS011;2065;49.790;9.620;2023-01-19T10:56:57;16.43;;;8.30;;
4102;SDS011;2065;49.790;9.620;2023-01-19T10:59:30;17.83;;;9.53;;
4102;SDS011;2065;49.790;9.620;2023-01-19T11:02:11;12.77;;;7.80;;
4102;SDS011;2065;49.790;9.620;2023-01-19T11:04:42;10.97;;;6.77;;
4102;SDS011;2065;49.790;9.620;2023-01-19T11:07:12;10.57;;;6.30;;
4102;SDS011;2065;49.790;9.620;2023-01-19T11:09:41;16.93;;;8.70;;
4102;SDS011;2065;49.790;9.620;2023-01-19T11:12:14;15.40;;;8.63;;
4102;SDS011;2065;49.790;9.620;2023-01-19T11:14:44;10.53;;;7.27;;
4102;SDS011;2065;49.790;9.620;2023-01-19T11:17:21;12.57;;;7.97;;
4102;SDS011;2065;49.790;9.620;2023-01-19T11:19:54;11.17;;;6.13;;
4102;SDS011;2065;49.790;9.620;2023-01-19T11:22:24;12.43;;;7.67;;
4102;SDS011;2065;49.790;9.620;2023-01-19T11:24:57;13.93;;;6.50;;
4102;SDS011;2065;49.790;9.620;2023-01-19T11:27:25;11.10;;;7.87;;
4102;SDS011;2065;49.790;9.620;2023-01-19T11:29:57;17.33;;;8.53;;
4102;SDS011;2065;49.790;9.620;2023-01-19T11:32:29;18.27;;;9.20;;
4102;SDS011;2065;49.790;9.620;2023-01-19T11:38:04;12.33;;;7.20;;
4102;SDS011;2065;49.790;9.620;2023-01-19T11:40:33;21.53;;;12.40;;
4102;SDS011;2065;49.790;9.620;2023-01-19T11:43:01;42.70;;;19.27;;
4102;SDS011;2065;49.790;9.620;2023-01-19T11:45:29;20.77;;;10.77;;
4102;SDS011;2065;49.790;9.620;2023-01-19T11:48:00;15.47;;;9.40;;
4102;SDS011;2065;49.790;9.620;2023-01-19T11:50:32;16.07;;;8.33;;
4102;SDS011;2065;49.790;9.620;2023-01-19T11:53:03;9.60;;;7.30;;
4102;SDS011;2065;49.790;9.620;2023-01-19T11:55:34;17.80;;;12.30;;
4102;SDS011;2065;49.790;9.620;2023-01-19T11:58:05;15.70;;;9.93;;
4102;SDS011;2065;49.790;9.620;2023-01-19T12:00:34;18.43;;;8.03;;
4102;SDS011;2065;49.790;9.620;2023-01-19T12:03:07;16.13;;;9.90;;
4102;SDS011;2065;49.790;9.620;2023-01-19T12:05:39;29.00;;;11.83;;
4102;SDS011;2065;49.790;9.620;2023-01-19T12:08:11;18.60;;;10.60;;
4102;SDS011;2065;49.790;9.620;2023-01-19T12:10:42;13.70;;;10.20;;
4102;SDS011;2065;49.790;9.620;2023-01-19T12:13:19;13.30;;;7.00;;
4102;SDS011;2065;49.790;9.620;2023-01-19T12:15:49;13.53;;;7.97;;
4102;SDS011;2065;49.790;9.620;2023-01-19T12:18:23;12.40;;;7.07;;
4102;SDS011;2065;49.790;9.620;2023-01-19T12:20:53;52.53;;;26.93;;
4102;SDS011;2065;49.790;9.620;2023-01-19T12:23:35;29.73;;;14.97;;
4102;SDS011;2065;49.790;9.620;2023-01-19T12:28:59;14.40;;;8.30;;
4102;SDS011;2065;49.790;9.620;2023-01-19T12:31:33;20.30;;;12.17;;
4102;SDS011;2065;49.790;9.620;2023-01-19T12:36:56;13.60;;;9.60;;
4102;SDS011;2065;49.790;9.620;2023-01-19T12:39:29;12.60;;;4.90;;
4102;SDS011;2065;49.790;9.620;2023-01-19T12:42:04;6.13;;;4.43;;
4102;SDS011;2065;49.790;9.620;2023-01-19T12:44:37;6.70;;;5.03;;
4102;SDS011;2065;49.790;9.620;2023-01-19T12:47:18;10.60;;;4.53;;
4102;SDS011;2065;49.790;9.620;2023-01-19T12:49:49;10.53;;;5.57;;
4102;SDS011;2065;49.790;9.620;2023-01-19T12:52:26;15.47;;;8.37;;
4102;SDS011;2065;49.790;9.620;2023-01-19T12:57:47;19.57;;;8.97;;
4102;SDS011;2065;49.790;9.620;2023-01-19T13:00:29;28.73;;;12.80;;
4102;SDS011;2065;49.790;9.620;2023-01-19T13:03:03;22.87;;;9.17;;
4102;SDS011;2065;49.790;9.620;2023-01-19T13:05:46;14.07;;;6.20;;
4102;SDS011;2065;49.790;9.620;2023-01-19T13:08:17;15.30;;;6.10;;
4102;SDS011;2065;49.790;9.620;2023-01-19T13:16:59;11.23;;;5.50;;
4102;SDS011;2065;49.790;9.620;2023-01-19T13:19:48;8.00;;;5.50;;
4102;SDS011;2065;49.790;9.620;2023-01-19T13:25:20;7.20;;;4.50;;
4102;SDS011;2065;49.790;9.620;2023-01-19T13:27:53;8.30;;;5.43;;
4102;SDS011;2065;49.790;9.620;2023-01-19T13:30:22;8.43;;;4.93;;
4102;SDS011;2065;49.790;9.620;2023-01-19T13:32:52;7.63;;;5.20;;
4102;SDS011;2065;49.790;9.620;2023-01-19T13:35:23;8.77;;;5.37;;
4102;SDS011;2065;49.790;9.620;2023-01-19T13:37:50;7.30;;;4.90;;
4102;SDS011;2065;49.790;9.620;2023-01-19T13:40:19;7.37;;;4.77;;
4102;SDS011;2065;49.790;9.620;2023-01-19T13:42:48;9.30;;;4.73;;
4102;SDS011;2065;49.790;9.620;2023-01-19T13:45:23;5.73;;;3.70;;
4102;SDS011;2065;49.790;9.620;2023-01-19T13:47:54;6.50;;;4.60;;
4102;SDS011;2065;49.790;9.620;2023-01-19T13:50:26;7.90;;;4.53;;
4102;SDS011;2065;49.790;9.620;2023-01-19T13:52:54;6.33;;;4.60;;
4102;SDS011;2065;49.790;9.620;2023-01-19T13:55:23;5.63;;;5.03;;
4102;SDS011;2065;49.790;9.620;2023-01-19T13:57:51;5.50;;;4.30;;
4102;SDS011;2065;49.790;9.620;2023-01-19T14:00:19;6.43;;;5.10;;
4102;SDS011;2065;49.790;9.620;2023-01-19T14:02:55;9.00;;;5.50;;
4102;SDS011;2065;49.790;9.620;2023-01-19T14:05:26;10.80;;;6.23;;
4102;SDS011;2065;49.790;9.620;2023-01-19T14:08:02;11.40;;;6.20;;
4102;SDS011;2065;49.790;9.620;2023-01-19T14:10:32;9.47;;;6.17;;
4102;SDS011;2065;49.790;9.620;2023-01-19T14:13:00;12.87;;;7.10;;
4102;SDS011;2065;49.790;9.620;2023-01-19T14:15:29;11.47;;;6.90;;
4102;SDS011;2065;49.790;9.620;2023-01-19T14:20:57;11.93;;;7.47;;
4102;SDS011;2065;49.790;9.620;2023-01-19T14:23:40;11.93;;;7.43;;
4102;SDS011;2065;49.790;9.620;2023-01-19T14:29:14;12.13;;;7.73;;
4102;SDS011;2065;49.790;9.620;2023-01-19T14:31:48;15.70;;;7.33;;
4102;SDS011;2065;49.790;9.620;2023-01-19T14:34:33;13.33;;;7.30;;
4102;SDS011;2065;49.790;9.620;2023-01-19T14:37:10;9.40;;;7.37;;
4102;SDS011;2065;49.790;9.620;2023-01-19T14:39:42;14.87;;;7.00;;
4102;SDS011;2065;49.790;9.620;2023-01-19T14:42:13;14.93;;;6.63;;
4102;SDS011;2065;49.790;9.620;2023-01-19T14:44:44;19.53;;;9.80;;
4102;SDS011;2065;49.790;9.620;2023-01-19T14:47:27;12.03;;;8.13;;
4102;SDS011;2065;49.790;9.620;2023-01-19T14:50:00;13.37;;;8.17;;
4102;SDS011;2065;49.790;9.620;2023-01-19T14:52:33;16.97;;;7.93;;
4102;SDS011;2065;49.790;9.620;2023-01-19T14:55:04;13.70;;;9.10;;
4102;SDS011;2065;49.790;9.620;2023-01-19T14:57:33;13.57;;;7.93;;
4102;SDS011;2065;49.790;9.620;2023-01-19T15:00:08;15.73;;;8.90;;
4102;SDS011;2065;49.790;9.620;2023-01-19T15:02:40;13.50;;;8.63;;
4102;SDS011;2065;49.790;9.620;2023-01-19T15:05:07;11.83;;;8.10;;
4102;SDS011;2065;49.790;9.620;2023-01-19T15:07:36;10.67;;;6.90;;
4102;SDS011;2065;49.790;9.620;2023-01-19T15:10:04;10.60;;;7.30;;
4102;SDS011;2065;49.790;9.620;2023-01-19T15:12:39;14.33;;;8.30;;
4102;SDS011;2065;49.790;9.620;2023-01-19T15:15:11;12.90;;;7.67;;
4102;SDS011;2065;49.790;9.620;2023-01-19T15:17:39;15.77;;;8.50;;
4102;SDS011;2065;49.790;9.620;2023-01-19T15:20:09;12.53;;;7.23;;
4102;SDS011;2065;49.790;9.620;2023-01-19T15:22:43;14.70;;;7.73;;
4102;SDS011;2065;49.790;9.620;2023-01-19T15:25:11;14.17;;;6.80;;
4102;SDS011;2065;49.790;9.620;2023-01-19T15:27:40;16.40;;;6.87;;
4102;SDS011;2065;49.790;9.620;2023-01-19T15:30:12;13.47;;;7.90;;
4102;SDS011;2065;49.790;9.620;2023-01-19T15:32:45;15.93;;;8.33;;
4102;SDS011;2065;49.790;9.620;2023-01-19T15:35:13;19.80;;;11.63;;
4102;SDS011;2065;49.790;9.620;2023-01-19T15:37:41;18.00;;;8.93;;
4102;SDS011;2065;49.790;9.620;2023-01-19T15:40:10;12.73;;;8.10;;
4102;SDS011;2065;49.790;9.620;2023-01-19T15:42:38;22.47;;;11.17;;